createdAt,value
2022-10-10T00:00:08.058Z,9.84
2022-10-10T00:01:36.052Z,9.83
2022-10-10T00:03:04.854Z,9.79
2022-10-10T00:05:23.406Z,9.76
2022-10-10T00:07:51.197Z,9.73
2022-10-10T00:09:21.994Z,9.72
2022-10-10T00:10:50.886Z,9.69
2022-10-10T00:12:46.802Z,9.66
2022-10-10T00:15:48.829Z,9.65
2022-10-10T00:18:33.023Z,9.61
2022-10-10T00:20:04.905Z,9.61
2022-10-10T00:24:14.561Z,9.56
2022-10-10T00:25:44.554Z,9.55
2022-10-10T00:29:52.383Z,9.48
2022-10-10T00:31:50.235Z,9.47
2022-10-10T00:34:14.919Z,9.46
2022-10-10T00:36:50.475Z,9.43
2022-10-10T00:41:09.550Z,9.37
2022-10-10T00:45:35.951Z,9.36
2022-10-10T00:47:24.679Z,9.34
2022-10-10T00:53:10.214Z,9.34
2022-10-10T00:55:12.967Z,9.34
2022-10-10T00:57:03.425Z,9.29
2022-10-10T00:58:35.367Z,9.31
2022-10-10T01:00:02.443Z,9.29
2022-10-10T01:03:54.136Z,9.26
2022-10-10T01:05:53.546Z,9.26
2022-10-10T01:09:18.822Z,9.23
2022-10-10T01:10:47.738Z,9.23
2022-10-10T01:17:53.425Z,9.18
2022-10-10T01:19:22.389Z,9.18
2022-10-10T01:23:20.608Z,9.16
2022-10-10T01:25:30.020Z,9.14
2022-10-10T01:28:37.993Z,9.14
2022-10-10T01:30:38.585Z,9.13
2022-10-10T01:32:36.570Z,9.14
2022-10-10T01:34:54.737Z,9.13
2022-10-10T01:37:31.005Z,9.11
2022-10-10T01:42:33.052Z,9.04
2022-10-10T01:44:58.642Z,9.03
2022-10-10T01:47:28.501Z,9.00
2022-10-10T01:54:49.267Z,8.99
2022-10-10T01:56:20.394Z,8.99
2022-10-10T01:57:51.094Z,8.97
2022-10-10T02:01:21.118Z,8.97
2022-10-10T02:02:48.164Z,8.97
2022-10-10T02:07:38.746Z,8.95
2022-10-10T02:09:38.015Z,8.92
2022-10-10T02:11:54.946Z,8.89
2022-10-10T02:15:32.948Z,8.87
2022-10-10T02:17:03.793Z,8.87
2022-10-10T02:20:10.375Z,8.88
2022-10-10T02:23:01.082Z,8.89
2022-10-10T02:29:42.235Z,8.92
2022-10-10T02:35:23.266Z,8.92
2022-10-10T02:39:15.293Z,8.91
2022-10-10T02:42:10.116Z,8.89
2022-10-10T02:44:28.173Z,8.91
2022-10-10T02:46:58.510Z,8.91
2022-10-10T02:56:12.502Z,8.91
2022-10-10T02:58:35.340Z,8.92
2022-10-10T03:00:22.043Z,8.92
2022-10-10T03:02:36.961Z,8.92
2022-10-10T03:05:54.078Z,8.91
2022-10-10T03:07:22.987Z,8.89
2022-10-10T03:09:21.796Z,8.88
2022-10-10T03:11:23.730Z,8.88
2022-10-10T03:14:40.411Z,8.89
2022-10-10T03:16:09.296Z,8.87
2022-10-10T03:19:08.198Z,8.88
2022-10-10T03:21:35.606Z,8.89
2022-10-10T03:23:05.559Z,8.91
2022-10-10T03:26:16.857Z,8.91
2022-10-10T03:27:45.719Z,8.91
2022-10-10T03:30:43.746Z,8.89
2022-10-10T03:32:12.767Z,8.91
2022-10-10T03:33:42.090Z,8.89
2022-10-10T03:35:31.290Z,8.87
2022-10-10T03:37:00.414Z,8.87
2022-10-10T03:38:30.843Z,8.87
2022-10-10T03:40:51.173Z,8.84
2022-10-10T03:42:39.003Z,8.82
2022-10-10T03:44:57.033Z,8.81
2022-10-10T03:46:26.379Z,8.81
2022-10-10T03:49:04.866Z,8.78
2022-10-10T03:50:33.770Z,8.78
2022-10-10T03:52:02.671Z,8.78
2022-10-10T03:54:00.564Z,8.78
2022-10-10T03:55:52.094Z,8.78
2022-10-10T03:58:37.923Z,8.78
2022-10-10T04:00:26.782Z,8.79
2022-10-10T04:02:44.403Z,8.79
2022-10-10T04:04:43.239Z,8.81
2022-10-10T04:06:42.509Z,8.81
2022-10-10T04:08:12.446Z,8.82
2022-10-10T04:09:42.309Z,8.82
2022-10-10T04:11:11.203Z,8.82
2022-10-10T04:13:12.084Z,8.81
2022-10-10T04:16:27.507Z,8.82
2022-10-10T04:18:55.379Z,8.82
2022-10-10T04:20:24.429Z,8.84
2022-10-10T04:22:23.269Z,8.81
2022-10-10T04:25:30.717Z,8.82
2022-10-10T04:26:59.600Z,8.82
2022-10-10T04:31:15.968Z,8.78
2022-10-10T04:33:44.254Z,8.76
2022-10-10T04:35:13.123Z,8.76
2022-10-10T04:42:08.573Z,8.74
2022-10-10T04:45:56.047Z,8.76
2022-10-10T04:50:11.330Z,8.73
2022-10-10T04:51:41.206Z,8.71
2022-10-10T04:53:10.162Z,8.71
2022-10-10T04:55:59.728Z,8.71
2022-10-10T04:58:29.652Z,8.69
2022-10-10T04:59:59.534Z,8.67
2022-10-10T05:02:01.560Z,8.69
2022-10-10T05:07:24.604Z,8.64
2022-10-10T05:08:54.516Z,8.64
2022-10-10T05:12:22.613Z,8.61
2022-10-10T05:14:21.425Z,8.63
2022-10-10T05:17:10.700Z,8.61
2022-10-10T05:22:33.943Z,8.58
2022-10-10T05:24:04.140Z,8.58
2022-10-10T05:25:33.045Z,8.58
2022-10-10T05:27:02.684Z,8.60
2022-10-10T05:28:32.912Z,8.60
2022-10-10T05:30:19.825Z,8.60
2022-10-10T05:33:07.379Z,8.60
2022-10-10T05:34:36.265Z,8.61
2022-10-10T05:37:06.051Z,8.63
2022-10-10T05:38:34.901Z,8.61
2022-10-10T05:46:27.461Z,8.64
2022-10-10T05:47:57.324Z,8.63
2022-10-10T05:49:56.501Z,8.63
2022-10-10T05:51:54.431Z,8.64
2022-10-10T05:56:58.771Z,8.64
2022-10-10T06:00:21.275Z,8.64
2022-10-10T06:05:25.460Z,8.64
2022-10-10T06:06:57.372Z,8.64
2022-10-10T06:09:22.389Z,8.61
2022-10-10T06:14:11.258Z,8.63
2022-10-10T06:18:07.379Z,8.60
2022-10-10T06:19:36.448Z,8.60
2022-10-10T06:21:07.096Z,8.61
2022-10-10T06:22:37.031Z,8.61
2022-10-10T06:28:24.903Z,8.64
2022-10-10T06:30:42.737Z,8.63
2022-10-10T06:32:11.627Z,8.64
2022-10-10T06:34:01.421Z,8.64
2022-10-10T06:36:23.371Z,8.66
2022-10-10T06:38:01.746Z,8.66
2022-10-10T06:40:12.016Z,8.67
2022-10-10T06:43:01.224Z,8.71
2022-10-10T06:46:38.155Z,8.79
2022-10-10T06:54:00.822Z,8.91
2022-10-10T06:55:30.634Z,8.92
2022-10-10T06:58:26.975Z,8.94
2022-10-10T07:04:51.304Z,9.11
2022-10-10T07:09:13.671Z,9.28
2022-10-10T07:13:33.852Z,9.43
2022-10-10T07:15:22.829Z,9.48
2022-10-10T07:24:18.501Z,9.82
2022-10-10T07:25:47.401Z,9.87
2022-10-10T07:27:16.300Z,9.92
2022-10-10T07:29:36.152Z,9.99
2022-10-10T07:31:06.213Z,10.04
2022-10-10T07:34:23.959Z,10.17
2022-10-10T07:38:33.123Z,10.34
2022-10-10T07:40:02.272Z,10.41
2022-10-10T07:41:31.205Z,10.48
2022-10-10T07:46:25.452Z,10.69
2022-10-10T07:50:56.311Z,10.86
2022-10-10T07:52:24.646Z,10.90
2022-10-10T07:55:24.353Z,11.02
2022-10-10T08:00:30.452Z,11.19
2022-10-10T08:02:31.382Z,11.26
2022-10-10T08:05:28.228Z,11.37
2022-10-10T08:08:25.216Z,11.44
2022-10-10T08:09:55.121Z,11.48
2022-10-10T08:11:26.542Z,11.51
2022-10-10T08:12:53.011Z,11.54
2022-10-10T08:15:41.269Z,11.59
2022-10-10T08:17:39.486Z,11.63
2022-10-10T08:21:41.982Z,11.75
2022-10-10T08:23:14.281Z,11.80
2022-10-10T08:25:32.360Z,11.88
2022-10-10T08:28:05.507Z,11.99
2022-10-10T08:29:35.224Z,12.00
2022-10-10T08:39:12.753Z,12.32
2022-10-10T08:40:42.792Z,12.43
2022-10-10T08:44:01.656Z,12.54
2022-10-10T08:52:43.298Z,12.82
2022-10-10T08:55:35.983Z,12.93
2022-10-10T08:57:56.680Z,12.97
2022-10-10T08:59:25.541Z,13.03
2022-10-10T09:00:54.500Z,13.08
2022-10-10T09:02:26.370Z,13.12
2022-10-10T09:07:42.091Z,13.27
2022-10-10T09:09:45.204Z,13.33
2022-10-10T09:11:14.205Z,13.37
2022-10-10T09:13:14.189Z,13.44
2022-10-10T09:16:05.950Z,13.47
2022-10-10T09:19:52.245Z,13.52
2022-10-10T09:24:00.258Z,13.59
2022-10-10T09:27:43.816Z,13.68
2022-10-10T09:31:18.583Z,13.72
2022-10-10T09:32:45.671Z,13.77
2022-10-10T09:34:48.442Z,13.79
2022-10-10T09:39:42.193Z,13.87
2022-10-10T09:41:42.479Z,13.87
2022-10-10T09:44:29.097Z,13.89
2022-10-10T09:46:00.740Z,13.92
2022-10-10T09:48:59.288Z,13.99
2022-10-10T09:50:26.407Z,14.05
2022-10-10T09:51:55.073Z,14.12
2022-10-10T09:55:04.396Z,14.29
2022-10-10T09:57:21.041Z,14.43
2022-10-10T10:00:10.804Z,14.60
2022-10-10T10:02:52.250Z,14.78
2022-10-10T10:05:21.006Z,14.88
2022-10-10T10:09:59.468Z,15.04
2022-10-10T10:12:18.520Z,15.18
2022-10-10T10:14:17.732Z,15.31
2022-10-10T10:17:17.263Z,15.51
2022-10-10T10:21:55.989Z,15.94
2022-10-10T10:24:33.863Z,16.15
2022-10-10T10:27:40.722Z,16.31
2022-10-10T10:31:57.704Z,16.35
2022-10-10T10:36:59.894Z,16.33
2022-10-10T10:44:39.886Z,16.36
2022-10-10T10:46:28.333Z,16.42
2022-10-10T10:47:57.268Z,16.49
2022-10-10T10:50:05.864Z,16.57
2022-10-10T10:52:00.897Z,16.69
2022-10-10T11:05:17.387Z,17.23
2022-10-10T11:07:25.823Z,17.42
2022-10-10T11:09:48.729Z,17.51
2022-10-10T11:11:24.100Z,17.52
2022-10-10T11:14:14.742Z,17.52
2022-10-10T11:16:43.505Z,17.54
2022-10-10T11:18:51.089Z,17.52
2022-10-10T11:21:58.621Z,17.60
2022-10-10T11:23:08.989Z,17.68
2022-10-10T11:25:04.475Z,17.68
2022-10-10T11:27:07.206Z,17.70
2022-10-10T11:28:57.218Z,17.79
2022-10-10T11:30:27.088Z,17.80
2022-10-10T11:31:55.998Z,17.79
2022-10-10T11:33:44.682Z,17.80
2022-10-10T11:35:13.624Z,17.85
2022-10-10T11:38:03.164Z,17.85
2022-10-10T11:39:33.216Z,17.82
2022-10-10T11:41:34.762Z,17.80
2022-10-10T11:43:24.456Z,17.74
2022-10-10T11:44:51.655Z,17.70
2022-10-10T11:46:50.234Z,17.67
2022-10-10T11:48:52.493Z,17.63
2022-10-10T11:50:19.415Z,17.57
2022-10-10T11:54:34.945Z,17.52
2022-10-10T11:56:33.720Z,17.46
2022-10-10T11:59:23.915Z,17.45
2022-10-10T12:01:13.877Z,17.49
2022-10-10T12:02:42.756Z,17.59
2022-10-10T12:04:11.818Z,17.63
2022-10-10T12:06:59.335Z,17.70
2022-10-10T12:08:28.248Z,17.71
2022-10-10T12:11:55.773Z,17.71
2022-10-10T12:13:24.887Z,17.68
2022-10-10T12:16:18.886Z,17.85
2022-10-10T12:21:23.787Z,17.87
2022-10-10T12:23:20.881Z,17.85
2022-10-10T12:25:50.551Z,17.74
2022-10-10T12:27:39.353Z,17.72
2022-10-10T12:30:07.043Z,17.78
2022-10-10T12:31:35.900Z,17.83
2022-10-10T12:33:56.509Z,17.95
2022-10-10T12:37:41.848Z,18.15
2022-10-10T12:39:11.643Z,18.16
2022-10-10T12:41:46.140Z,18.10
2022-10-10T12:43:12.042Z,18.10
2022-10-10T12:46:28.630Z,18.08
2022-10-10T12:49:22.079Z,18.16
2022-10-10T12:50:50.125Z,18.19
2022-10-10T12:53:18.903Z,18.25
2022-10-10T12:55:38.273Z,18.35
2022-10-10T12:57:38.060Z,18.47
2022-10-10T12:59:07.958Z,18.56
2022-10-10T13:00:56.781Z,18.68
2022-10-10T13:02:26.618Z,18.71
2022-10-10T13:04:53.754Z,18.66
2022-10-10T13:06:54.072Z,18.58
2022-10-10T13:08:51.803Z,18.53
2022-10-10T13:10:22.906Z,18.50
2022-10-10T13:12:57.969Z,18.41
2022-10-10T13:14:26.898Z,18.37
2022-10-10T13:16:20.766Z,18.31
2022-10-10T13:18:16.127Z,18.20
2022-10-10T13:19:50.997Z,18.15
2022-10-10T13:22:39.997Z,18.08
2022-10-10T13:24:40.204Z,18.01
2022-10-10T13:26:29.809Z,18.00
2022-10-10T13:29:16.924Z,17.95
2022-10-10T13:30:45.836Z,17.89
2022-10-10T13:32:34.991Z,17.86
2022-10-10T13:35:51.288Z,17.71
2022-10-10T13:37:48.250Z,17.64
2022-10-10T13:39:49.044Z,17.56
2022-10-10T13:45:32.121Z,17.45
2022-10-10T13:47:03.918Z,17.44
2022-10-10T13:48:34.291Z,17.42
2022-10-10T13:50:35.760Z,17.38
2022-10-10T13:52:02.722Z,17.36
2022-10-10T13:53:38.636Z,17.33
2022-10-10T13:55:36.704Z,17.19
2022-10-10T13:57:09.362Z,16.97
2022-10-10T14:00:25.962Z,16.84
2022-10-10T14:06:29.010Z,16.66
2022-10-10T14:08:29.105Z,16.61
2022-10-10T14:10:27.446Z,16.53
2022-10-10T14:12:56.113Z,16.49
2022-10-10T14:14:55.841Z,16.39
2022-10-10T14:16:25.062Z,16.35
2022-10-10T14:20:31.763Z,16.26
2022-10-10T14:22:03.855Z,16.20
2022-10-10T14:23:32.816Z,16.16
2022-10-10T14:25:32.957Z,16.12
2022-10-10T14:28:01.125Z,16.08
2022-10-10T14:29:30.545Z,16.04
2022-10-10T14:32:19.979Z,16.00
2022-10-10T14:33:49.938Z,15.92
2022-10-10T14:35:19.362Z,15.88
2022-10-10T14:37:08.685Z,15.82
2022-10-10T14:40:48.613Z,15.76
2022-10-10T14:42:44.488Z,15.76
2022-10-10T14:44:45.748Z,15.72
2022-10-10T14:46:45.639Z,15.70
2022-10-10T14:48:14.701Z,15.65
2022-10-10T14:50:13.507Z,15.65
2022-10-10T14:53:31.911Z,15.65
2022-10-10T14:57:19.266Z,15.65
2022-10-10T15:04:58.275Z,15.58
2022-10-10T15:06:27.128Z,15.57
2022-10-10T15:11:19.045Z,15.52
2022-10-10T15:12:48.946Z,15.51
2022-10-10T15:15:37.493Z,15.46
2022-10-10T15:18:54.106Z,15.40
2022-10-10T15:21:40.339Z,15.35
2022-10-10T15:23:09.298Z,15.31
2022-10-10T15:25:56.244Z,15.28
2022-10-10T15:28:25.053Z,15.24
2022-10-10T15:30:53.712Z,15.04
2022-10-10T15:33:12.841Z,14.69
2022-10-10T15:36:03.813Z,14.43
2022-10-10T15:37:07.599Z,14.32
2022-10-10T15:40:25.444Z,14.17
2022-10-10T15:42:56.259Z,14.08
2022-10-10T15:49:19.593Z,13.79
2022-10-10T15:50:51.541Z,13.75
2022-10-10T15:57:41.205Z,13.52
2022-10-10T15:59:43.408Z,13.44
2022-10-10T16:01:39.174Z,13.41
2022-10-10T16:03:57.965Z,13.38
2022-10-10T16:05:26.839Z,13.31
2022-10-10T16:07:24.217Z,13.25
2022-10-10T16:09:57.314Z,13.20
2022-10-10T16:11:26.212Z,13.22
2022-10-10T16:12:55.137Z,13.23
2022-10-10T16:15:52.822Z,13.19
2022-10-10T16:17:23.597Z,13.16
2022-10-10T16:20:37.376Z,13.13
2022-10-10T16:23:28.146Z,13.12
2022-10-10T16:25:57.719Z,13.12
2022-10-10T16:28:15.819Z,13.08
2022-10-10T16:29:44.667Z,13.09
2022-10-10T16:31:33.636Z,13.08
2022-10-10T16:34:00.287Z,13.08
2022-10-10T16:36:27.617Z,13.03
2022-10-10T16:38:25.294Z,13.04
2022-10-10T16:43:03.629Z,13.03
2022-10-10T16:44:33.675Z,13.04
2022-10-10T16:46:59.948Z,13.01
2022-10-10T16:50:20.033Z,12.97
2022-10-10T16:52:10.099Z,12.97
2022-10-10T16:55:37.279Z,12.94
2022-10-10T17:00:17.330Z,12.86
2022-10-10T17:02:16.142Z,12.85
2022-10-10T17:04:57.462Z,12.78
2022-10-10T17:07:36.994Z,12.73
2022-10-10T17:10:14.598Z,12.68
2022-10-10T17:15:29.802Z,12.64
2022-10-10T17:17:37.623Z,12.62
2022-10-10T17:19:07.492Z,12.62
2022-10-10T17:21:37.020Z,12.61
2022-10-10T17:24:57.476Z,12.57
2022-10-10T17:27:15.725Z,12.55
2022-10-10T17:30:43.104Z,12.50
2022-10-10T17:33:36.499Z,12.49
2022-10-10T17:38:48.460Z,12.42
2022-10-10T17:40:46.324Z,12.39
2022-10-10T17:44:10.185Z,12.32
2022-10-10T17:46:58.428Z,12.29
2022-10-10T17:49:54.022Z,12.27
2022-10-10T17:51:21.925Z,12.24
2022-10-10T17:54:11.533Z,12.20
2022-10-10T17:56:59.861Z,12.17
2022-10-10T17:58:48.065Z,12.13
2022-10-10T18:01:56.456Z,12.09
2022-10-10T18:04:26.563Z,12.06
2022-10-10T18:05:58.643Z,12.02
2022-10-10T18:09:27.327Z,11.94
2022-10-10T18:13:09.326Z,11.87
2022-10-10T18:16:27.523Z,11.83
2022-10-10T18:18:50.418Z,11.81
2022-10-10T18:20:46.981Z,11.77
2022-10-10T18:22:36.708Z,11.72
2022-10-10T18:24:06.758Z,11.69
2022-10-10T18:27:06.788Z,11.63
2022-10-10T18:28:38.718Z,11.63
2022-10-10T18:30:56.517Z,11.62
2022-10-10T18:34:34.400Z,11.60
2022-10-10T18:37:23.593Z,11.59
2022-10-10T18:40:21.807Z,11.57
2022-10-10T18:41:51.697Z,11.55
2022-10-10T18:46:43.037Z,11.47
2022-10-10T18:48:44.050Z,11.41
2022-10-10T18:56:47.860Z,11.22
2022-10-10T18:58:16.904Z,11.18
2022-10-10T19:00:09.438Z,11.12
2022-10-10T19:04:02.763Z,11.04
2022-10-10T19:06:41.254Z,10.97
2022-10-10T19:08:10.685Z,10.94
2022-10-10T19:09:42.413Z,10.90
2022-10-10T19:15:58.788Z,10.78
2022-10-10T19:17:27.732Z,10.75
2022-10-10T19:18:58.528Z,10.74
2022-10-10T19:20:29.136Z,10.74
2022-10-10T19:21:55.481Z,10.72
2022-10-10T19:24:44.388Z,10.69
2022-10-10T19:26:43.848Z,10.67
2022-10-10T19:28:43.315Z,10.63
2022-10-10T19:30:13.608Z,10.60
2022-10-10T19:31:41.699Z,10.57
2022-10-10T19:33:13.151Z,10.57
2022-10-10T19:35:10.297Z,10.51
2022-10-10T19:37:58.129Z,10.46
2022-10-10T19:39:27.482Z,10.46
2022-10-10T19:43:17.422Z,10.41
2022-10-10T19:44:45.518Z,10.40
2022-10-10T19:46:16.399Z,10.38
2022-10-10T19:47:44.812Z,10.37
2022-10-10T19:49:42.769Z,10.33
2022-10-10T19:51:12.760Z,10.30
2022-10-10T19:55:12.724Z,10.23
2022-10-10T19:57:32.122Z,10.19
2022-10-10T19:58:59.792Z,10.19
2022-10-10T20:01:24.495Z,10.16
2022-10-10T20:03:20.332Z,10.15
2022-10-10T20:05:47.556Z,10.10
2022-10-10T20:07:16.497Z,10.10
2022-10-10T20:09:44.706Z,10.05
2022-10-10T20:11:15.638Z,10.04
2022-10-10T20:20:19.296Z,9.89
2022-10-10T20:22:24.174Z,9.87
2022-10-10T20:24:10.944Z,9.86
2022-10-10T20:26:09.771Z,9.82
2022-10-10T20:27:40.653Z,9.83
2022-10-10T20:29:15.505Z,9.80
2022-10-10T20:32:49.322Z,9.77
2022-10-10T20:35:51.237Z,9.74
2022-10-10T20:39:49.115Z,9.69
2022-10-10T20:42:07.197Z,9.66
2022-10-10T20:45:30.903Z,9.64
2022-10-10T20:48:45.794Z,9.62
2022-10-10T20:50:46.492Z,9.61
2022-10-10T20:54:26.090Z,9.55
2022-10-10T20:55:57.949Z,9.54
2022-10-10T20:58:30.324Z,9.51
2022-10-10T20:59:58.209Z,9.50
2022-10-10T21:01:28.621Z,9.48
2022-10-10T21:04:16.128Z,9.46
2022-10-10T21:07:27.580Z,9.46
2022-10-10T21:09:58.799Z,9.43
2022-10-10T21:11:26.449Z,9.43
2022-10-10T21:12:57.308Z,9.41
2022-10-10T21:14:24.354Z,9.43
2022-10-10T21:16:26.117Z,9.41
2022-10-10T21:18:24.817Z,9.40
2022-10-10T21:21:32.395Z,9.37
2022-10-10T21:23:55.839Z,9.36
2022-10-10T21:26:21.683Z,9.34
2022-10-10T21:28:12.246Z,9.31
2022-10-10T21:29:40.219Z,9.28
2022-10-10T21:32:39.774Z,9.25
2022-10-10T21:34:11.783Z,9.21
2022-10-10T21:36:16.441Z,9.19
2022-10-10T21:39:45.713Z,9.16
2022-10-10T21:41:34.409Z,9.16
2022-10-10T21:43:23.171Z,9.13
2022-10-10T21:46:02.398Z,9.11
2022-10-10T21:49:44.375Z,9.08
2022-10-10T21:52:00.767Z,9.10
2022-10-10T21:53:27.937Z,9.06
2022-10-10T21:55:18.560Z,9.08
2022-10-10T21:57:17.201Z,9.06
2022-10-10T21:58:46.082Z,9.04
2022-10-10T22:01:14.455Z,9.04
2022-10-10T22:05:45.456Z,9.03
2022-10-10T22:10:03.916Z,9.00
2022-10-10T22:14:19.689Z,8.94
2022-10-10T22:15:48.121Z,8.92
2022-10-10T22:17:52.014Z,8.91
2022-10-10T22:19:21.928Z,8.88
2022-10-10T22:20:51.797Z,8.87
2022-10-10T22:22:20.936Z,8.84
2022-10-10T22:23:50.833Z,8.82
2022-10-10T22:25:19.688Z,8.81
2022-10-10T22:31:13.497Z,8.71
2022-10-10T22:33:35.058Z,8.67
2022-10-10T22:37:50.530Z,8.63
2022-10-10T22:42:24.171Z,8.56
2022-10-10T22:44:22.073Z,8.53
2022-10-10T22:47:09.728Z,8.52
2022-10-10T22:49:59.983Z,8.48
2022-10-10T22:53:09.149Z,8.45
2022-10-10T22:55:35.942Z,8.42
2022-10-10T22:57:05.849Z,8.41
2022-10-10T23:02:24.961Z,8.31
2022-10-10T23:04:54.294Z,8.30
2022-10-10T23:07:13.014Z,8.28
2022-10-10T23:09:59.611Z,8.26
2022-10-10T23:12:48.706Z,8.20
2022-10-10T23:14:17.018Z,8.19
2022-10-10T23:18:28.823Z,8.16
2022-10-10T23:20:59.539Z,8.12
2022-10-10T23:23:15.298Z,8.12
2022-10-10T23:27:03.875Z,8.10
2022-10-10T23:28:32.795Z,8.10
2022-10-10T23:31:51.322Z,8.09
2022-10-10T23:33:22.176Z,8.08
2022-10-10T23:36:21.026Z,8.06
2022-10-10T23:38:49.469Z,8.05
2022-10-10T23:40:51.516Z,8.01
2022-10-10T23:42:48.371Z,7.98
2022-10-10T23:45:16.815Z,7.98
2022-10-10T23:47:06.499Z,7.97
2022-10-10T23:48:56.213Z,7.95
2022-10-10T23:50:55.251Z,7.91
2022-10-10T23:52:24.139Z,7.91
2022-10-10T23:56:30.962Z,7.87
2022-10-10T23:58:32.590Z,7.85
